createdAt,value
2018-07-31T00:00:50.114Z,20.42
2018-07-31T00:01:50.118Z,20.33
2018-07-31T00:02:50.113Z,20.21
2018-07-31T00:03:50.118Z,20.08
2018-07-31T00:04:50.134Z,20.15
2018-07-31T00:05:50.115Z,20.09
2018-07-31T00:06:50.113Z,19.90
2018-07-31T00:07:50.117Z,19.90
2018-07-31T00:08:50.135Z,19.90
2018-07-31T00:09:50.118Z,19.91
2018-07-31T00:10:50.115Z,19.93
2018-07-31T00:11:50.113Z,19.93
2018-07-31T00:12:50.114Z,20.06
2018-07-31T00:13:50.122Z,20.08
2018-07-31T00:14:50.114Z,20.20
2018-07-31T00:15:50.106Z,20.18
2018-07-31T00:16:50.109Z,20.10
2018-07-31T00:17:50.115Z,20.16
2018-07-31T00:18:50.108Z,20.35
2018-07-31T00:19:50.109Z,20.53
2018-07-31T00:20:50.107Z,20.68
2018-07-31T00:21:50.105Z,20.79
2018-07-31T00:22:50.108Z,20.99
2018-07-31T00:23:50.104Z,21.04
2018-07-31T00:24:50.103Z,21.04
2018-07-31T00:25:50.103Z,21.06
2018-07-31T00:26:50.103Z,21.13
2018-07-31T00:27:50.111Z,21.19
2018-07-31T00:28:50.103Z,21.21
2018-07-31T00:29:50.127Z,21.20
2018-07-31T00:30:50.103Z,21.17
2018-07-31T00:31:50.097Z,21.24
2018-07-31T00:32:50.092Z,21.34
2018-07-31T00:33:50.111Z,21.42
2018-07-31T00:34:50.095Z,21.36
2018-07-31T00:35:50.095Z,21.38
2018-07-31T00:36:50.093Z,21.51
2018-07-31T00:37:50.098Z,21.57
2018-07-31T00:38:50.101Z,21.51
2018-07-31T00:39:50.084Z,21.64
2018-07-31T00:40:50.097Z,21.60
2018-07-31T00:41:50.090Z,21.64
2018-07-31T00:42:50.090Z,21.66
2018-07-31T00:43:50.090Z,21.57
2018-07-31T00:44:50.090Z,21.63
2018-07-31T00:45:50.088Z,21.63
2018-07-31T00:46:50.083Z,21.60
2018-07-31T00:47:50.083Z,21.57
2018-07-31T00:48:50.085Z,21.48
2018-07-31T00:49:50.083Z,21.53
2018-07-31T00:50:50.084Z,21.53
2018-07-31T00:51:50.078Z,21.51
2018-07-31T00:52:50.083Z,21.54
2018-07-31T00:53:50.089Z,21.35
2018-07-31T00:54:50.079Z,21.42
2018-07-31T00:55:50.074Z,21.36
2018-07-31T00:56:50.080Z,21.39
2018-07-31T00:57:50.075Z,21.21
2018-07-31T00:58:50.073Z,21.13
2018-07-31T00:59:50.076Z,21.13
2018-07-31T01:00:50.073Z,21.02
2018-07-31T01:01:50.085Z,20.96
2018-07-31T01:02:50.070Z,20.90
2018-07-31T01:03:50.086Z,20.76
2018-07-31T01:04:50.079Z,20.90
2018-07-31T01:05:50.072Z,20.89
2018-07-31T01:06:50.071Z,20.90
2018-07-31T01:07:50.068Z,20.90
2018-07-31T01:08:50.091Z,20.79
2018-07-31T01:09:50.075Z,20.84
2018-07-31T01:10:50.070Z,20.74
2018-07-31T01:11:50.069Z,20.74
2018-07-31T01:12:50.069Z,20.62
2018-07-31T01:13:50.068Z,20.64
2018-07-31T01:14:50.092Z,20.59
2018-07-31T01:15:50.090Z,20.51
2018-07-31T01:16:50.061Z,20.50
2018-07-31T01:17:50.058Z,20.39
2018-07-31T01:18:50.057Z,20.28
2018-07-31T01:19:50.060Z,20.18
2018-07-31T01:20:50.098Z,20.18
2018-07-31T01:21:50.059Z,20.24
2018-07-31T01:22:50.051Z,20.10
2018-07-31T01:23:50.060Z,20.16
2018-07-31T01:24:50.091Z,20.03
2018-07-31T01:25:50.055Z,20.15
2018-07-31T01:26:50.095Z,20.02
2018-07-31T01:27:50.050Z,20.06
2018-07-31T01:28:50.052Z,19.97
2018-07-31T01:29:50.086Z,20.06
2018-07-31T01:30:50.049Z,20.02
2018-07-31T02:04:37.958Z,19.35
2018-07-31T02:05:37.936Z,19.35
2018-07-31T02:07:30.849Z,19.31
2018-07-31T02:08:30.817Z,19.31
2018-07-31T02:10:23.824Z,19.39
2018-07-31T02:11:23.806Z,19.32
2018-07-31T02:13:16.603Z,19.35
2018-07-31T02:14:16.596Z,19.33
2018-07-31T02:16:09.526Z,19.33
2018-07-31T02:17:09.504Z,19.28
2018-07-31T02:19:02.427Z,19.25
2018-07-31T02:20:02.403Z,19.39
2018-07-31T02:21:55.359Z,19.54
2018-07-31T02:22:55.336Z,19.54
2018-07-31T02:24:48.242Z,19.61
2018-07-31T02:25:48.229Z,19.65
2018-07-31T02:27:41.151Z,19.58
2018-07-31T02:28:41.188Z,19.55
2018-07-31T02:30:34.040Z,19.57
2018-07-31T02:31:34.017Z,19.47
2018-07-31T02:33:26.918Z,19.36
2018-07-31T02:34:26.905Z,19.33
2018-07-31T02:36:19.823Z,19.33
2018-07-31T02:37:19.803Z,19.39
2018-07-31T02:39:12.732Z,19.31
2018-07-31T02:40:12.723Z,19.25
2018-07-31T02:42:05.638Z,19.18
2018-07-31T02:43:05.628Z,19.17
2018-07-31T02:44:58.532Z,19.14
2018-07-31T02:45:58.522Z,19.08
2018-07-31T02:47:51.459Z,18.99
2018-07-31T02:48:51.444Z,19.01
2018-07-31T02:50:44.359Z,19.06
2018-07-31T02:51:44.342Z,19.11
2018-07-31T02:53:37.247Z,19.14
2018-07-31T02:54:37.249Z,19.20
2018-07-31T02:56:30.169Z,19.23
2018-07-31T02:57:30.152Z,19.13
2018-07-31T02:59:23.082Z,19.15
2018-07-31T03:00:23.069Z,19.29
2018-07-31T03:02:16.008Z,19.33
2018-07-31T03:03:15.985Z,19.38
2018-07-31T03:05:08.902Z,19.42
2018-07-31T03:06:08.890Z,19.35
2018-07-31T03:08:01.813Z,19.35
2018-07-31T03:09:01.789Z,19.25
2018-07-31T03:10:54.700Z,19.32
2018-07-31T03:11:54.679Z,19.35
2018-07-31T03:13:47.578Z,19.28
2018-07-31T03:14:47.571Z,19.25
2018-07-31T03:16:40.495Z,19.28
2018-07-31T03:17:40.480Z,19.32
2018-07-31T03:19:33.397Z,19.25
2018-07-31T03:20:33.385Z,19.24
2018-07-31T03:22:26.301Z,19.29
2018-07-31T03:23:26.296Z,19.01
2018-07-31T03:25:19.201Z,19.14
2018-07-31T03:26:19.190Z,19.31
2018-07-31T03:28:12.167Z,19.21
2018-07-31T03:29:12.098Z,19.15
2018-07-31T03:31:05.045Z,19.01
2018-07-31T03:32:05.031Z,18.99
2018-07-31T03:33:57.930Z,18.99
2018-07-31T03:34:57.921Z,19.02
2018-07-31T03:36:50.851Z,19.06
2018-07-31T03:37:50.827Z,19.02
2018-07-31T03:39:43.746Z,19.06
2018-07-31T03:40:43.736Z,19.17
2018-07-31T03:42:36.687Z,19.13
2018-07-31T03:43:36.661Z,19.17
2018-07-31T03:45:29.593Z,19.14
2018-07-31T03:46:29.582Z,19.13
2018-07-31T03:48:22.517Z,18.99
2018-07-31T03:49:22.495Z,18.95
2018-07-31T03:51:16.422Z,18.95
2018-07-31T03:52:16.415Z,19.06
2018-07-31T03:54:09.371Z,18.99
2018-07-31T03:55:09.336Z,18.98
2018-07-31T03:57:02.257Z,18.90
2018-07-31T03:58:02.238Z,18.83
2018-07-31T03:59:55.143Z,18.83
2018-07-31T04:00:55.126Z,18.83
2018-07-31T04:02:48.045Z,18.84
2018-07-31T04:03:48.029Z,18.74
2018-07-31T04:05:40.952Z,18.77
2018-07-31T04:06:40.935Z,18.82
2018-07-31T04:08:33.852Z,18.82
2018-07-31T04:09:33.830Z,18.80
2018-07-31T04:11:26.741Z,18.94
2018-07-31T04:12:26.736Z,18.91
2018-07-31T04:14:19.743Z,18.97
2018-07-31T04:15:19.717Z,19.01
2018-07-31T04:17:12.734Z,19.02
2018-07-31T04:18:12.620Z,19.11
2018-07-31T04:20:05.523Z,19.05
2018-07-31T04:21:05.509Z,18.97
2018-07-31T04:22:58.456Z,18.92
2018-07-31T04:23:58.418Z,18.83
2018-07-31T04:25:51.312Z,18.58
2018-07-31T04:26:51.298Z,18.64
2018-07-31T04:28:44.216Z,18.43
2018-07-31T04:29:44.179Z,18.50
2018-07-31T04:31:37.097Z,18.55
2018-07-31T04:32:37.083Z,18.49
2018-07-31T04:34:30.005Z,18.67
2018-07-31T04:35:29.987Z,18.74
2018-07-31T04:37:22.886Z,18.80
2018-07-31T04:38:22.877Z,18.94
2018-07-31T04:40:15.805Z,18.92
2018-07-31T04:41:15.851Z,18.98
2018-07-31T04:43:08.739Z,19.06
2018-07-31T04:44:08.714Z,19.10
2018-07-31T04:46:01.627Z,19.25
2018-07-31T04:47:01.618Z,19.29
2018-07-31T04:48:54.528Z,19.47
2018-07-31T04:49:54.507Z,19.47
2018-07-31T04:51:47.455Z,19.61
2018-07-31T04:52:47.444Z,19.68
2018-07-31T04:54:40.355Z,19.78
2018-07-31T04:55:40.333Z,19.84
2018-07-31T04:57:33.273Z,20.00
2018-07-31T04:58:33.253Z,19.97
2018-07-31T05:00:26.159Z,19.98
2018-07-31T05:01:26.153Z,20.02
2018-07-31T05:03:19.079Z,20.05
2018-07-31T05:04:19.076Z,20.16
2018-07-31T05:06:12.001Z,20.16
2018-07-31T05:07:11.990Z,20.08
2018-07-31T05:09:04.922Z,20.24
2018-07-31T05:10:04.904Z,20.39
2018-07-31T05:11:57.895Z,20.51
2018-07-31T05:12:57.892Z,20.65
2018-07-31T05:13:57.882Z,20.69
2018-07-31T05:14:57.883Z,20.72
2018-07-31T05:15:57.878Z,20.77
2018-07-31T05:16:57.877Z,20.79
2018-07-31T05:17:57.876Z,20.76
2018-07-31T05:18:57.880Z,20.80
2018-07-31T05:19:57.891Z,20.79
2018-07-31T05:20:57.892Z,20.84
2018-07-31T05:21:57.880Z,20.96
2018-07-31T05:22:57.880Z,20.95
2018-07-31T05:23:57.876Z,21.02
2018-07-31T05:24:57.879Z,21.14
2018-07-31T05:25:57.871Z,21.16
2018-07-31T05:26:57.894Z,21.16
2018-07-31T05:27:57.873Z,21.26
2018-07-31T05:28:57.889Z,21.26
2018-07-31T05:29:57.876Z,21.39
2018-07-31T05:30:57.884Z,21.35
2018-07-31T05:31:57.880Z,21.29
2018-07-31T05:32:57.880Z,21.46
2018-07-31T05:33:57.879Z,21.45
2018-07-31T05:34:57.886Z,21.63
2018-07-31T05:35:57.882Z,21.66
2018-07-31T05:36:57.892Z,21.72
2018-07-31T05:37:57.884Z,21.95
2018-07-31T05:38:57.886Z,21.99
2018-07-31T05:39:57.885Z,22.16
2018-07-31T05:40:57.883Z,22.28
2018-07-31T05:41:57.887Z,22.35
2018-07-31T05:42:57.887Z,22.49
2018-07-31T05:43:57.886Z,22.52
2018-07-31T05:44:57.902Z,22.56
2018-07-31T05:45:57.886Z,22.64
2018-07-31T05:46:57.889Z,22.68
2018-07-31T05:47:57.890Z,22.83
2018-07-31T05:48:57.894Z,22.87
2018-07-31T05:49:57.906Z,22.97
2018-07-31T05:50:57.890Z,22.97
2018-07-31T05:51:57.930Z,23.04
2018-07-31T05:52:57.898Z,23.12
2018-07-31T05:53:57.902Z,23.09
2018-07-31T05:54:57.899Z,23.12
2018-07-31T05:55:57.903Z,23.31
2018-07-31T05:56:57.903Z,23.23
2018-07-31T05:57:57.904Z,23.17
2018-07-31T05:58:57.902Z,23.23
2018-07-31T05:59:57.907Z,23.38
2018-07-31T06:00:58.769Z,23.49
2018-07-31T06:01:57.911Z,23.53
2018-07-31T06:02:57.913Z,23.58
2018-07-31T06:03:57.916Z,23.62
2018-07-31T06:04:57.916Z,23.76
2018-07-31T06:05:57.917Z,23.82
2018-07-31T06:06:57.937Z,23.76
2018-07-31T06:07:57.922Z,23.82
2018-07-31T06:08:57.925Z,23.80
2018-07-31T06:09:57.928Z,23.90
2018-07-31T06:10:57.939Z,24.04
2018-07-31T06:11:57.933Z,24.16
2018-07-31T06:12:57.934Z,24.34
2018-07-31T06:13:57.941Z,24.34
2018-07-31T06:14:57.942Z,24.05
2018-07-31T06:15:57.945Z,23.92
2018-07-31T06:16:57.949Z,23.92
2018-07-31T06:17:57.950Z,23.92
2018-07-31T06:18:57.950Z,24.04
2018-07-31T06:19:57.952Z,24.07
2018-07-31T06:20:57.957Z,24.17
2018-07-31T06:21:57.956Z,24.23
2018-07-31T06:22:57.961Z,24.22
2018-07-31T06:23:57.965Z,24.20
2018-07-31T06:24:57.963Z,24.32
2018-07-31T06:25:57.970Z,24.50
2018-07-31T06:26:57.997Z,24.63
2018-07-31T06:27:57.982Z,24.80
2018-07-31T06:28:57.979Z,24.79
2018-07-31T06:29:57.995Z,24.57
2018-07-31T06:30:57.985Z,24.31
2018-07-31T06:31:57.988Z,24.27
2018-07-31T06:32:58.048Z,24.29
2018-07-31T06:33:57.997Z,24.47
2018-07-31T06:34:58.002Z,24.61
2018-07-31T06:35:58.000Z,24.87
2018-07-31T06:36:58.002Z,24.73
2018-07-31T06:37:58.008Z,24.92
2018-07-31T06:38:58.009Z,25.05
2018-07-31T06:39:58.014Z,25.15
2018-07-31T06:40:58.017Z,25.35
2018-07-31T06:41:58.022Z,25.56
2018-07-31T06:42:58.027Z,25.79
2018-07-31T06:43:58.030Z,25.80
2018-07-31T06:44:58.034Z,25.97
2018-07-31T06:45:58.030Z,25.93
2018-07-31T06:46:58.041Z,25.97
2018-07-31T06:47:58.045Z,26.09
2018-07-31T06:48:58.066Z,26.04
2018-07-31T06:49:58.050Z,26.04
2018-07-31T06:50:58.053Z,26.49
2018-07-31T06:51:58.056Z,26.46
2018-07-31T06:52:58.069Z,26.74
2018-07-31T06:53:58.067Z,26.73
2018-07-31T06:54:58.066Z,26.69
2018-07-31T06:55:58.073Z,26.68
2018-07-31T06:56:58.076Z,27.29
2018-07-31T06:57:58.089Z,27.32
2018-07-31T06:58:58.085Z,27.09
2018-07-31T06:59:58.097Z,27.28
2018-07-31T07:00:58.098Z,27.01
2018-07-31T07:01:58.112Z,27.10
2018-07-31T07:02:58.101Z,26.74
2018-07-31T07:03:58.108Z,26.98
2018-07-31T07:04:58.111Z,27.11
2018-07-31T07:05:58.118Z,27.59
2018-07-31T07:06:58.116Z,27.86
2018-07-31T07:07:58.123Z,27.79
2018-07-31T07:08:58.128Z,28.10
2018-07-31T07:09:58.132Z,28.03
2018-07-31T07:10:58.137Z,28.29
2018-07-31T07:11:58.143Z,28.38
2018-07-31T07:12:58.149Z,28.32
2018-07-31T07:13:58.169Z,27.62
2018-07-31T07:14:58.158Z,27.85
2018-07-31T07:15:58.162Z,28.35
2018-07-31T07:16:58.169Z,28.66
2018-07-31T07:17:58.174Z,29.33
2018-07-31T07:18:58.176Z,29.89
2018-07-31T07:19:58.181Z,30.40
2018-07-31T07:20:58.188Z,29.75
2018-07-31T07:21:58.191Z,30.76
2018-07-31T07:22:58.199Z,31.26
2018-07-31T07:23:58.209Z,30.99
2018-07-31T07:24:58.214Z,30.62
2018-07-31T07:25:58.223Z,30.36
2018-07-31T07:26:58.232Z,30.12
2018-07-31T07:27:58.284Z,30.74
2018-07-31T07:28:58.249Z,30.15
2018-07-31T07:29:58.262Z,30.40
2018-07-31T07:30:58.276Z,29.96
2018-07-31T07:31:58.280Z,30.02
2018-07-31T07:32:58.299Z,29.92
2018-07-31T07:33:58.441Z,30.12
2018-07-31T07:34:58.315Z,30.99
2018-07-31T07:35:58.326Z,31.02
2018-07-31T07:36:58.346Z,31.40
2018-07-31T07:37:58.356Z,32.20
2018-07-31T07:38:58.372Z,32.44
2018-07-31T07:39:58.382Z,32.42
2018-07-31T07:40:58.391Z,32.85
2018-07-31T07:41:58.399Z,33.14
2018-07-31T07:42:58.420Z,32.62
2018-07-31T07:43:58.447Z,32.55
2018-07-31T07:44:58.448Z,33.19
2018-07-31T07:45:58.462Z,33.67
2018-07-31T07:46:58.486Z,34.01
2018-07-31T07:47:59.188Z,33.67
2018-07-31T07:48:58.506Z,34.05
2018-07-31T07:49:58.522Z,33.53
2018-07-31T07:50:58.536Z,32.86
2018-07-31T07:51:58.553Z,34.00
2018-07-31T07:52:58.569Z,34.22
2018-07-31T07:53:58.672Z,33.53
2018-07-31T07:54:58.602Z,34.02
2018-07-31T07:55:58.612Z,34.88
2018-07-31T07:56:58.623Z,35.63
2018-07-31T07:57:58.644Z,34.41
2018-07-31T07:58:58.660Z,34.09
2018-07-31T07:59:58.674Z,34.76
2018-07-31T08:00:58.696Z,34.04
2018-07-31T08:01:58.714Z,34.69
2018-07-31T08:02:58.728Z,33.68
2018-07-31T08:03:58.757Z,32.99
2018-07-31T08:04:58.764Z,33.15
2018-07-31T08:05:58.785Z,33.64
2018-07-31T08:06:58.800Z,34.17
2018-07-31T08:07:58.812Z,34.08
2018-07-31T08:08:58.838Z,33.65
2018-07-31T08:09:58.851Z,33.31
2018-07-31T08:10:58.872Z,33.95
2018-07-31T08:11:58.882Z,34.42
2018-07-31T08:12:58.906Z,34.61
2018-07-31T08:13:58.920Z,35.02
2018-07-31T08:14:59.007Z,35.60
2018-07-31T08:15:58.953Z,35.51
2018-07-31T08:16:58.971Z,35.45
2018-07-31T08:17:58.992Z,34.81
2018-07-31T08:18:59.008Z,34.54
2018-07-31T08:19:59.028Z,34.05
2018-07-31T08:20:59.042Z,34.01
2018-07-31T08:21:59.061Z,34.11
2018-07-31T08:22:59.080Z,34.36
2018-07-31T08:23:59.109Z,35.10
2018-07-31T08:24:59.118Z,35.88
2018-07-31T08:25:59.133Z,35.10
2018-07-31T08:26:59.154Z,34.41
2018-07-31T08:27:59.170Z,35.02
2018-07-31T08:28:59.191Z,35.44
2018-07-31T08:29:59.209Z,36.63
2018-07-31T08:30:59.234Z,36.56
2018-07-31T08:31:59.247Z,36.98
2018-07-31T08:32:59.290Z,36.99
2018-07-31T08:33:59.286Z,37.89
2018-07-31T08:34:59.321Z,38.14
2018-07-31T08:35:59.324Z,38.01
2018-07-31T08:36:59.345Z,36.80
2018-07-31T08:37:59.352Z,37.29
2018-07-31T08:38:59.383Z,38.01
2018-07-31T08:39:59.397Z,38.57
2018-07-31T08:40:59.423Z,39.42
2018-07-31T08:41:59.436Z,39.81
2018-07-31T08:42:59.509Z,38.83
2018-07-31T08:43:59.480Z,38.14
2018-07-31T08:44:59.501Z,38.83
2018-07-31T08:45:59.524Z,38.96
2018-07-31T08:46:59.544Z,38.99
2018-07-31T08:47:59.575Z,39.61
2018-07-31T08:48:59.586Z,39.86
2018-07-31T08:49:59.629Z,39.62
2018-07-31T08:50:59.619Z,39.73
2018-07-31T08:51:59.643Z,39.96
2018-07-31T08:52:59.699Z,40.52
2018-07-31T08:53:59.768Z,40.45
2018-07-31T08:54:59.705Z,40.23
2018-07-31T08:55:59.726Z,40.26
2018-07-31T08:56:59.752Z,40.47
2018-07-31T08:57:59.789Z,40.23
2018-07-31T08:58:59.791Z,39.89
2018-07-31T08:59:59.830Z,39.42
2018-07-31T09:00:59.838Z,38.39
2018-07-31T09:01:59.855Z,38.42
2018-07-31T09:02:59.876Z,39.32
2018-07-31T09:03:59.902Z,39.90
2018-07-31T09:04:59.920Z,39.77
2018-07-31T09:05:59.943Z,40.26
2018-07-31T09:06:59.957Z,40.23
2018-07-31T09:07:59.985Z,39.83
2018-07-31T09:09:00.076Z,40.15
2018-07-31T09:10:00.027Z,40.17
2018-07-31T09:11:00.052Z,41.03
2018-07-31T09:12:00.074Z,41.75
2018-07-31T09:13:00.093Z,42.16
2018-07-31T09:14:00.114Z,42.34
2018-07-31T09:15:00.141Z,42.23
2018-07-31T09:16:00.159Z,42.46
2018-07-31T09:17:00.180Z,42.10
2018-07-31T09:18:00.202Z,41.22
2018-07-31T09:19:00.230Z,40.15
2018-07-31T09:20:00.247Z,40.02
2018-07-31T09:21:00.277Z,39.22
2018-07-31T09:22:00.294Z,39.67
2018-07-31T09:23:00.317Z,39.65
2018-07-31T09:24:00.338Z,38.42
2018-07-31T09:25:00.364Z,38.32
2018-07-31T09:26:00.388Z,37.05
2018-07-31T09:27:00.408Z,37.19
2018-07-31T09:28:00.428Z,38.01
2018-07-31T09:29:00.452Z,38.78
2018-07-31T09:30:00.476Z,39.20
2018-07-31T09:31:00.676Z,38.95
2018-07-31T09:32:00.525Z,38.44
2018-07-31T09:33:00.543Z,37.70
2018-07-31T09:34:00.567Z,37.74
2018-07-31T09:35:00.597Z,38.83
2018-07-31T09:36:00.612Z,39.42
2018-07-31T09:37:00.634Z,39.14
2018-07-31T09:38:00.687Z,39.65
2018-07-31T09:39:00.684Z,39.90
2018-07-31T09:40:00.698Z,40.43
2018-07-31T09:41:00.728Z,40.65
2018-07-31T09:42:00.745Z,41.15
2018-07-31T09:43:00.765Z,40.79
2018-07-31T09:44:00.792Z,41.06
2018-07-31T09:45:00.815Z,40.93
2018-07-31T09:46:00.837Z,41.41
2018-07-31T09:47:00.867Z,41.24
2018-07-31T09:48:00.880Z,41.56
2018-07-31T09:49:00.904Z,40.33
2018-07-31T09:50:00.926Z,39.81
2018-07-31T09:51:00.950Z,39.70
2018-07-31T09:52:00.968Z,40.19
2018-07-31T09:53:01.009Z,39.58
2018-07-31T09:54:01.017Z,39.47
2018-07-31T09:55:01.037Z,38.99
2018-07-31T09:56:01.078Z,39.69
2018-07-31T09:57:01.091Z,40.75
2018-07-31T09:58:01.106Z,40.69
2018-07-31T09:59:01.168Z,41.56
2018-07-31T10:00:01.159Z,42.05
2018-07-31T10:01:01.171Z,41.82
2018-07-31T10:02:01.198Z,42.60
2018-07-31T10:03:01.255Z,41.77
2018-07-31T10:04:01.243Z,40.17
2018-07-31T10:05:01.307Z,39.49
2018-07-31T10:06:01.291Z,38.55
2018-07-31T10:07:01.315Z,39.18
2018-07-31T10:08:01.336Z,39.43
2018-07-31T10:09:01.358Z,39.62
2018-07-31T10:10:01.381Z,38.60
2018-07-31T10:11:01.398Z,37.74
2018-07-31T10:12:01.490Z,38.22
2018-07-31T10:13:01.461Z,38.41
2018-07-31T10:14:01.476Z,38.78
2018-07-31T10:15:01.512Z,39.28
2018-07-31T10:16:01.521Z,39.06
2018-07-31T10:17:01.540Z,38.71
2018-07-31T10:18:01.615Z,38.55
2018-07-31T10:19:01.588Z,38.33
2018-07-31T10:20:01.615Z,38.10
2018-07-31T10:21:01.633Z,38.15
2018-07-31T10:22:01.654Z,39.30
2018-07-31T10:23:02.205Z,39.18
2018-07-31T10:24:01.706Z,38.55
2018-07-31T10:25:01.720Z,38.39
2018-07-31T10:26:01.742Z,38.36
2018-07-31T10:27:01.765Z,38.53
2018-07-31T10:28:01.792Z,38.29
2018-07-31T10:29:01.810Z,38.10
2018-07-31T10:30:01.832Z,38.79
2018-07-31T10:31:01.876Z,39.62
2018-07-31T10:32:01.876Z,40.15
2018-07-31T10:33:01.905Z,39.67
2018-07-31T10:34:01.928Z,40.27
2018-07-31T10:35:01.944Z,39.88
2018-07-31T10:36:01.977Z,40.26
2018-07-31T10:37:01.988Z,39.37
2018-07-31T10:38:02.008Z,38.17
2018-07-31T10:39:02.037Z,39.25
2018-07-31T10:40:02.054Z,40.18
2018-07-31T10:41:02.076Z,41.00
2018-07-31T10:42:02.110Z,41.56
2018-07-31T10:43:02.118Z,40.23
2018-07-31T10:44:02.216Z,39.86
2018-07-31T10:45:02.165Z,37.96
2018-07-31T10:46:02.191Z,37.50
2018-07-31T10:47:02.209Z,37.58
2018-07-31T10:48:02.229Z,37.50
2018-07-31T10:49:02.274Z,38.60
2018-07-31T10:50:02.325Z,38.61
2018-07-31T10:51:02.300Z,37.73
2018-07-31T10:52:02.322Z,37.04
2018-07-31T10:53:02.344Z,36.75
2018-07-31T10:54:02.364Z,37.68
2018-07-31T10:55:02.427Z,38.63
2018-07-31T10:56:02.407Z,38.15
2018-07-31T10:57:02.429Z,38.68
2018-07-31T10:58:02.506Z,38.92
2018-07-31T10:59:02.477Z,38.46
2018-07-31T11:00:02.569Z,38.58
2018-07-31T11:01:02.511Z,39.55
2018-07-31T11:02:02.536Z,39.88
2018-07-31T11:03:02.588Z,40.27
2018-07-31T11:04:02.717Z,40.26
2018-07-31T11:05:02.602Z,40.42
2018-07-31T11:06:02.626Z,40.69
2018-07-31T11:07:02.648Z,39.59
2018-07-31T11:08:02.666Z,39.98
2018-07-31T11:09:02.683Z,40.27
2018-07-31T11:10:02.717Z,41.03
2018-07-31T11:11:02.730Z,41.50
2018-07-31T11:12:02.750Z,42.12
2018-07-31T11:13:02.764Z,42.29
2018-07-31T11:14:02.801Z,40.23
2018-07-31T11:15:02.814Z,40.26
2018-07-31T11:16:02.841Z,41.15
2018-07-31T11:17:02.862Z,41.71
2018-07-31T11:18:02.880Z,42.09
2018-07-31T11:19:02.901Z,41.74
2018-07-31T11:20:02.925Z,42.22
2018-07-31T11:21:03.018Z,41.33
2018-07-31T11:22:02.968Z,41.98
2018-07-31T11:23:02.990Z,42.25
2018-07-31T11:24:03.007Z,42.72
2018-07-31T11:25:03.032Z,43.07
2018-07-31T11:26:03.055Z,43.41
2018-07-31T11:27:03.077Z,42.99
2018-07-31T11:28:03.124Z,43.19
2018-07-31T11:29:03.123Z,42.46
2018-07-31T11:30:03.147Z,42.05
2018-07-31T11:31:03.168Z,42.66
2018-07-31T11:32:03.196Z,42.81
2018-07-31T11:33:03.261Z,43.02
2018-07-31T11:34:03.232Z,42.63
2018-07-31T11:35:03.260Z,41.54
2018-07-31T11:36:03.276Z,41.37
2018-07-31T11:37:03.301Z,40.96
2018-07-31T11:38:03.328Z,40.46
2018-07-31T11:39:03.345Z,40.27
2018-07-31T11:40:03.372Z,40.98
2018-07-31T11:41:03.389Z,41.63
2018-07-31T11:42:03.419Z,42.00
2018-07-31T11:43:03.436Z,42.47
2018-07-31T11:44:03.466Z,43.00
2018-07-31T11:45:03.483Z,43.32
2018-07-31T11:46:03.507Z,43.33
2018-07-31T11:47:03.553Z,42.68
2018-07-31T11:48:03.563Z,42.97
2018-07-31T11:49:03.568Z,42.85
2018-07-31T11:50:03.709Z,42.87
2018-07-31T11:51:03.617Z,42.63
2018-07-31T11:52:03.634Z,41.12
2018-07-31T11:53:03.659Z,40.53
2018-07-31T11:54:03.689Z,40.75
2018-07-31T11:55:03.700Z,40.33
2018-07-31T11:56:03.719Z,39.46
2018-07-31T11:57:03.749Z,39.39
2018-07-31T11:58:03.771Z,38.98
2018-07-31T11:59:03.804Z,38.68
2018-07-31T12:00:03.819Z,38.96
2018-07-31T12:01:03.836Z,38.38
2018-07-31T12:02:03.862Z,38.36
2018-07-31T12:03:03.889Z,37.98
2018-07-31T12:04:04.012Z,37.76
2018-07-31T12:05:03.923Z,38.10
2018-07-31T12:06:03.950Z,38.12
2018-07-31T12:07:03.968Z,38.73
2018-07-31T12:08:03.988Z,39.02
2018-07-31T12:09:04.007Z,38.60
2018-07-31T12:10:04.032Z,37.96
2018-07-31T12:11:04.071Z,37.85
2018-07-31T12:12:04.113Z,37.68
2018-07-31T12:13:04.092Z,37.92
2018-07-31T12:14:04.115Z,37.59
2018-07-31T12:15:04.134Z,37.55
2018-07-31T12:16:04.213Z,37.29
2018-07-31T12:17:04.174Z,38.42
2018-07-31T12:18:04.196Z,38.30
2018-07-31T12:19:04.219Z,37.54
2018-07-31T12:20:04.240Z,37.66
2018-07-31T12:21:04.257Z,37.88
2018-07-31T12:22:04.274Z,37.88
2018-07-31T12:23:04.297Z,38.17
2018-07-31T12:24:04.390Z,38.86
2018-07-31T12:25:04.334Z,39.37
2018-07-31T12:26:04.353Z,39.39
2018-07-31T12:27:04.384Z,39.83
2018-07-31T12:28:04.395Z,40.19
2018-07-31T12:29:04.411Z,40.88
2018-07-31T12:30:04.492Z,41.20
2018-07-31T12:31:04.454Z,41.40
2018-07-31T12:32:04.469Z,40.57
2018-07-31T12:33:04.517Z,39.78
2018-07-31T12:34:04.500Z,39.36
2018-07-31T12:35:04.532Z,38.75
2018-07-31T12:36:04.576Z,38.04
2018-07-31T12:37:04.576Z,37.24
2018-07-31T12:38:04.597Z,36.86
2018-07-31T12:39:04.612Z,36.36
2018-07-31T12:40:04.643Z,36.08
2018-07-31T12:41:04.647Z,36.21
2018-07-31T12:42:04.663Z,36.03
2018-07-31T12:43:04.699Z,35.82
2018-07-31T12:44:04.744Z,35.58
2018-07-31T12:45:04.714Z,35.02
2018-07-31T12:46:04.730Z,35.03
2018-07-31T12:47:04.764Z,35.30
2018-07-31T12:48:04.761Z,35.23
2018-07-31T12:49:04.787Z,35.35
2018-07-31T12:50:04.842Z,35.39
2018-07-31T12:51:04.810Z,35.10
2018-07-31T12:52:04.815Z,34.95
2018-07-31T12:53:04.869Z,34.77
2018-07-31T12:54:04.848Z,34.96
2018-07-31T12:55:04.853Z,35.08
2018-07-31T12:56:04.866Z,34.64
2018-07-31T12:57:04.927Z,34.63
2018-07-31T12:58:04.916Z,34.61
2018-07-31T12:59:05.610Z,34.66
2018-07-31T13:00:04.991Z,34.69
2018-07-31T13:01:04.922Z,34.73
2018-07-31T13:02:04.962Z,34.50
2018-07-31T13:03:04.940Z,34.61
2018-07-31T13:04:04.953Z,34.41
2018-07-31T13:05:04.962Z,34.26
2018-07-31T13:06:04.965Z,34.17
2018-07-31T13:07:04.979Z,34.19
2018-07-31T13:08:05.003Z,34.36
2018-07-31T13:09:05.003Z,34.57
2018-07-31T13:10:05.010Z,34.70
2018-07-31T13:11:05.021Z,34.79
2018-07-31T13:12:05.025Z,34.60
2018-07-31T13:13:05.051Z,34.35
2018-07-31T13:14:05.045Z,34.53
2018-07-31T13:15:05.059Z,34.32
2018-07-31T13:16:05.072Z,34.32
2018-07-31T13:17:05.117Z,34.35
2018-07-31T13:18:05.080Z,34.26
2018-07-31T13:19:05.087Z,34.31
2018-07-31T13:20:05.093Z,34.36
2018-07-31T13:21:05.128Z,34.36
2018-07-31T13:22:05.132Z,34.32
2018-07-31T13:23:05.118Z,34.29
2018-07-31T13:24:05.127Z,34.36
2018-07-31T13:25:05.136Z,34.38
2018-07-31T13:26:05.149Z,34.39
2018-07-31T13:27:05.150Z,34.27
2018-07-31T13:28:05.158Z,34.11
2018-07-31T13:29:05.158Z,34.13
2018-07-31T13:30:05.183Z,34.24
2018-07-31T13:31:05.183Z,34.22
2018-07-31T13:32:05.188Z,34.26
2018-07-31T13:33:06.108Z,34.35
2018-07-31T13:34:05.208Z,34.56
2018-07-31T13:35:05.263Z,34.61
2018-07-31T13:36:05.220Z,34.57
2018-07-31T13:37:05.233Z,34.56
2018-07-31T13:38:05.236Z,34.07
2018-07-31T13:39:05.244Z,34.04
2018-07-31T13:40:05.251Z,34.02
2018-07-31T13:41:05.258Z,34.05
2018-07-31T13:42:05.259Z,34.00
2018-07-31T13:43:05.274Z,33.94
2018-07-31T13:44:05.396Z,33.89
2018-07-31T13:45:05.292Z,34.08
2018-07-31T13:46:05.303Z,34.19
2018-07-31T13:47:05.306Z,34.04
2018-07-31T13:48:05.311Z,34.20
2018-07-31T13:49:05.338Z,34.36
2018-07-31T13:50:05.333Z,34.44
2018-07-31T13:51:05.333Z,34.58
2018-07-31T13:52:05.339Z,34.60
2018-07-31T13:53:05.348Z,34.61
2018-07-31T13:54:05.355Z,34.69
2018-07-31T13:55:05.365Z,34.81
2018-07-31T13:56:05.367Z,34.96
2018-07-31T13:57:05.385Z,34.88
2018-07-31T13:58:05.394Z,35.06
2018-07-31T13:59:05.404Z,35.10
2018-07-31T14:00:05.407Z,35.10
2018-07-31T14:01:05.406Z,34.83
2018-07-31T14:02:05.418Z,34.53
2018-07-31T14:03:05.424Z,34.54
2018-07-31T14:04:05.456Z,34.50
2018-07-31T14:05:05.438Z,34.53
2018-07-31T14:06:05.445Z,34.53
2018-07-31T14:07:05.499Z,34.45
2018-07-31T14:08:05.463Z,34.44
2018-07-31T14:09:05.481Z,34.39
2018-07-31T14:10:05.470Z,34.34
2018-07-31T14:11:05.486Z,34.24
2018-07-31T14:12:05.523Z,34.20
2018-07-31T14:13:05.559Z,34.14
2018-07-31T14:14:05.520Z,33.98
2018-07-31T14:15:05.510Z,34.11
2018-07-31T14:16:05.532Z,34.19
2018-07-31T14:17:05.583Z,34.22
2018-07-31T14:18:05.545Z,34.08
2018-07-31T14:19:05.540Z,34.02
2018-07-31T14:20:05.551Z,34.01
2018-07-31T14:21:05.571Z,34.11
2018-07-31T14:22:05.560Z,34.24
2018-07-31T14:23:05.607Z,34.34